Alden, New York
Current Conditions -  °F | °C
As of 12:54 PM on Friday 28 Nov 2014 (Local Time) from KBUF Reporting Station
Broken Clouds Broken Clouds  
Wind Chill: 15°   Ceiling: 4100
Heat Index: 26°   Visibility: 10mi
Dew Point: 11°   Wind: 13mph
Humidity: 53%   Direction: 290°WNW
Pressure: 30.22"   Gusts: NA
Location:  42.9°N, 78.49°W
Report Text: KBUF 281754Z 29011KT 10SM BKN041 BKN120 M03/M12 A3022 RMK AO2 SLP245 933002 60000 T10331117 11033 21061 58014
Loading
Personal Weather Stations






























Interactive Weather Map New forecast layout! Learn more

10-Day Weather Forecast

Advertisements
Track Severe Weather on mobile